createdAt,value
2022-11-17T00:02:19.016Z,98909.09
2022-11-17T00:05:22.695Z,98907.97
2022-11-17T00:08:25.281Z,98896.53
2022-11-17T00:11:48.280Z,98896.84
2022-11-17T00:14:52.543Z,98894.88
2022-11-17T00:18:14.313Z,98887.75
2022-11-17T00:21:23.738Z,98896.44
2022-11-17T00:24:26.789Z,98904.34
2022-11-17T00:27:29.412Z,98900.34
2022-11-17T00:30:51.102Z,98897.94
2022-11-17T00:34:07.213Z,98898.31
2022-11-17T00:37:12.072Z,98900.34
2022-11-17T00:40:15.868Z,98887.28
2022-11-17T00:43:18.698Z,98886.47
2022-11-17T00:46:21.288Z,98884.12
2022-11-17T00:49:27.558Z,98891.22
2022-11-17T00:52:30.412Z,98886.47
2022-11-17T00:55:33.238Z,98897.13
2022-11-17T00:58:36.671Z,98896.31
2022-11-17T01:01:40.072Z,98893.94
2022-11-17T01:04:42.771Z,98897.50
2022-11-17T01:07:47.094Z,98894.28
2022-11-17T01:10:49.700Z,98885.94
2022-11-17T01:13:55.953Z,98891.84
2022-11-17T01:16:58.819Z,98891.44
2022-11-17T01:20:01.830Z,98894.94
2022-11-17T01:23:04.417Z,98892.88
2022-11-17T01:26:11.266Z,98888.97
2022-11-17T01:29:17.417Z,98894.13
2022-11-17T01:32:20.320Z,98902.00
2022-11-17T01:35:23.037Z,98901.25
2022-11-17T01:38:25.937Z,98893.31
2022-11-17T01:41:28.957Z,98896.87
2022-11-17T01:45:00.914Z,98890.16
2022-11-17T01:48:06.516Z,98882.38
2022-11-17T01:51:11.915Z,98886.66
2022-11-17T01:54:18.523Z,98887.13
2022-11-17T01:57:27.722Z,98882.44
2022-11-17T02:00:30.412Z,98893.84
2022-11-17T02:03:34.841Z,98892.66
2022-11-17T02:06:40.860Z,98894.63
2022-11-17T02:09:44.199Z,98890.25
2022-11-17T02:12:50.319Z,98874.91
2022-11-17T02:15:52.833Z,98864.25
2022-11-17T02:18:55.831Z,98846.94
2022-11-17T02:22:26.321Z,98847.72
2022-11-17T02:25:35.011Z,98852.97
2022-11-17T02:28:42.702Z,98856.81
2022-11-17T02:32:01.717Z,98851.69
2022-11-17T02:35:10.049Z,98845.38
2022-11-17T02:38:32.729Z,98835.13
2022-11-17T02:41:45.292Z,98842.16
2022-11-17T02:44:59.812Z,98844.94
2022-11-17T02:48:12.396Z,98840.56
2022-11-17T02:51:22.586Z,98844.03
2022-11-17T02:54:28.543Z,98833.78
2022-11-17T02:57:40.231Z,98821.25
2022-11-17T03:01:08.684Z,98814.56
2022-11-17T03:04:42.272Z,98818.88
2022-11-17T03:07:56.669Z,98812.16
2022-11-17T03:10:59.660Z,98833.03
2022-11-17T03:14:41.160Z,98838.50
2022-11-17T03:18:12.431Z,98847.19
2022-11-17T03:21:22.892Z,98847.19
2022-11-17T03:24:32.894Z,98848.72
2022-11-17T03:27:45.818Z,98843.59
2022-11-17T03:30:51.111Z,98840.88
2022-11-17T03:33:54.769Z,98847.50
2022-11-17T03:37:03.676Z,98853.03
2022-11-17T03:40:11.311Z,98859.34
2022-11-17T03:43:18.031Z,98852.19
2022-11-17T03:46:24.396Z,98851.13
2022-11-17T03:49:52.321Z,98856.25
2022-11-17T03:52:55.099Z,98852.78
2022-11-17T03:56:06.985Z,98859.06
2022-11-17T03:59:19.217Z,98859.88
2022-11-17T04:02:24.196Z,98852.34
2022-11-17T04:05:27.453Z,98854.62
2022-11-17T04:08:30.957Z,98837.00
2022-11-17T04:11:52.530Z,98844.06
2022-11-17T04:15:13.677Z,98840.84
2022-11-17T04:18:16.733Z,98842.13
2022-11-17T04:21:19.337Z,98857.06
2022-11-17T04:24:22.339Z,98849.22
2022-11-17T04:27:43.488Z,98848.47
2022-11-17T04:30:46.357Z,98852.69
2022-11-17T04:33:53.829Z,98857.91
2022-11-17T04:36:56.905Z,98854.12
2022-11-17T04:39:59.500Z,98855.63
2022-11-17T04:43:02.324Z,98853.25
2022-11-17T04:46:05.124Z,98857.19
2022-11-17T04:49:08.915Z,98865.00
2022-11-17T04:52:11.925Z,98862.34
2022-11-17T04:55:14.873Z,98869.78
2022-11-17T04:58:17.500Z,98870.59
2022-11-17T05:01:22.516Z,98873.00
2022-11-17T05:04:43.591Z,98866.84
2022-11-17T05:07:46.516Z,98870.00
2022-11-17T05:11:07.598Z,98873.13
2022-11-17T05:14:11.353Z,98873.13
2022-11-17T05:17:13.910Z,98869.28
2022-11-17T05:20:18.537Z,98867.31
2022-11-17T05:23:39.821Z,98867.66
2022-11-17T05:26:46.718Z,98867.28
2022-11-17T05:29:49.346Z,98856.25
2022-11-17T05:32:52.241Z,98868.44
2022-11-17T05:35:54.843Z,98876.31
2022-11-17T05:38:57.921Z,98871.19
2022-11-17T05:42:00.692Z,98877.88
2022-11-17T05:45:03.750Z,98884.62
2022-11-17T05:48:06.752Z,98885.00
2022-11-17T05:51:10.453Z,98883.06
2022-11-17T05:54:12.957Z,98889.75
2022-11-17T05:57:27.058Z,98892.88
2022-11-17T06:00:31.085Z,98893.25
2022-11-17T06:03:39.950Z,98901.13
2022-11-17T06:06:42.519Z,98903.87
2022-11-17T06:09:46.519Z,98896.00
2022-11-17T06:12:49.155Z,98897.94
2022-11-17T06:15:54.311Z,98901.44
2022-11-17T06:19:09.940Z,98907.31
2022-11-17T06:22:13.788Z,98908.88
2022-11-17T06:25:18.858Z,98922.66
2022-11-17T06:28:22.690Z,98914.28
2022-11-17T06:31:28.342Z,98920.94
2022-11-17T06:34:33.032Z,98935.44
2022-11-17T06:37:35.765Z,98924.78
2022-11-17T06:40:38.664Z,98917.72
2022-11-17T06:43:41.248Z,98917.31
2022-11-17T06:46:48.823Z,98925.97
2022-11-17T06:49:51.855Z,98929.44
2022-11-17T06:52:59.333Z,98916.41
2022-11-17T06:56:04.817Z,98927.81
2022-11-17T06:59:07.733Z,98925.59
2022-11-17T07:02:10.577Z,98931.25
2022-11-17T07:05:13.460Z,98940.31
2022-11-17T07:08:16.050Z,98927.03
2022-11-17T07:11:19.364Z,98916.84
2022-11-17T07:14:22.085Z,98907.78
2022-11-17T07:17:25.044Z,98916.41
2022-11-17T07:20:27.807Z,98914.81
2022-11-17T07:23:32.850Z,98919.59
2022-11-17T07:26:35.585Z,98926.37
2022-11-17T07:29:38.519Z,98926.78
2022-11-17T07:32:44.043Z,98917.75
2022-11-17T07:35:47.080Z,98913.41
2022-11-17T07:38:49.668Z,98904.00
2022-11-17T07:41:52.594Z,98910.72
2022-11-17T07:44:55.228Z,98917.06
2022-11-17T07:48:00.347Z,98919.44
2022-11-17T07:51:04.083Z,98919.03
2022-11-17T07:54:06.923Z,98915.88
2022-11-17T07:57:09.540Z,98916.69
2022-11-17T08:00:13.960Z,98910.78
2022-11-17T08:03:17.027Z,98907.22
2022-11-17T08:06:20.066Z,98924.22
2022-11-17T08:09:22.962Z,98925.00
2022-11-17T08:12:25.589Z,98926.56
2022-11-17T08:15:29.738Z,98922.22
2022-11-17T08:18:33.242Z,98934.84
2022-11-17T08:21:37.507Z,98936.41
2022-11-17T08:24:40.169Z,98937.59
2022-11-17T08:27:44.324Z,98936.00
2022-11-17T08:30:47.499Z,98941.91
2022-11-17T08:33:50.391Z,98939.53
2022-11-17T08:36:52.901Z,98941.91
2022-11-17T08:39:55.820Z,98943.38
2022-11-17T08:43:01.211Z,98950.56
2022-11-17T08:46:04.983Z,98957.28
2022-11-17T08:49:07.648Z,98949.00
2022-11-17T08:52:10.596Z,98965.69
2022-11-17T08:55:13.215Z,98961.03
2022-11-17T08:58:18.103Z,98946.47
2022-11-17T09:01:20.664Z,98955.91
2022-11-17T09:04:23.677Z,98950.41
2022-11-17T09:07:28.394Z,98958.13
2022-11-17T09:10:38.177Z,98951.84
2022-11-17T09:13:41.030Z,98955.84
2022-11-17T09:16:43.950Z,98959.44
2022-11-17T09:19:46.591Z,98960.47
2022-11-17T09:22:49.606Z,98955.34
2022-11-17T09:25:52.576Z,98957.94
2022-11-17T09:28:55.532Z,98950.59
2022-11-17T09:31:58.178Z,98951.63
2022-11-17T09:35:01.181Z,98949.63
2022-11-17T09:38:03.944Z,98949.25
2022-11-17T09:41:39.210Z,98948.44
2022-11-17T09:44:51.617Z,98960.06
2022-11-17T09:48:12.645Z,98959.69
2022-11-17T09:51:25.707Z,98940.31
2022-11-17T09:54:51.282Z,98934.06
2022-11-17T09:58:31.379Z,98947.34
2022-11-17T10:01:34.383Z,98947.91
2022-11-17T10:04:37.396Z,98941.25
2022-11-17T10:07:47.202Z,98953.38
2022-11-17T10:10:51.711Z,98955.38
2022-11-17T10:13:54.430Z,98946.34
2022-11-17T10:16:59.444Z,98954.34
2022-11-17T10:20:02.089Z,98950.88
2022-11-17T10:23:05.171Z,98952.88
2022-11-17T10:26:11.146Z,98952.38
2022-11-17T10:29:22.121Z,98955.53
2022-11-17T10:32:25.808Z,98958.38
2022-11-17T10:35:31.697Z,98948.13
2022-11-17T10:38:35.545Z,98949.13
2022-11-17T10:41:45.439Z,98945.53
2022-11-17T10:44:52.564Z,98944.53
2022-11-17T10:48:20.215Z,98924.94
2022-11-17T10:51:32.645Z,98918.47
2022-11-17T10:54:35.666Z,98921.47
2022-11-17T10:57:44.373Z,98921.50
2022-11-17T11:00:54.814Z,98922.62
2022-11-17T11:03:57.465Z,98917.34
2022-11-17T11:07:19.439Z,98915.28
2022-11-17T11:10:32.125Z,98931.06
2022-11-17T11:13:43.933Z,98896.63
2022-11-17T11:16:48.601Z,98898.25
2022-11-17T11:19:54.520Z,98902.28
2022-11-17T11:23:08.876Z,98897.16
2022-11-17T11:26:40.572Z,98898.31
2022-11-17T11:30:13.225Z,98897.41
2022-11-17T11:33:47.875Z,98896.97
2022-11-17T11:37:05.785Z,98892.66
2022-11-17T11:40:40.296Z,98901.03
2022-11-17T11:44:20.580Z,98903.84
2022-11-17T11:47:35.417Z,98895.94
2022-11-17T11:50:43.477Z,98894.09
2022-11-17T11:53:58.730Z,98904.94
2022-11-17T11:57:01.995Z,98898.84
2022-11-17T12:00:07.980Z,98894.63
2022-11-17T12:03:16.650Z,98897.78
2022-11-17T12:06:42.299Z,98889.50
2022-11-17T12:09:54.157Z,98906.41
2022-11-17T12:12:57.642Z,98900.88
2022-11-17T12:16:20.456Z,98904.34
2022-11-17T12:19:44.838Z,98895.13
2022-11-17T12:23:16.098Z,98893.25
2022-11-17T12:26:28.005Z,98908.00
2022-11-17T12:29:31.991Z,98907.06
2022-11-17T12:32:46.603Z,98911.06
2022-11-17T12:36:29.805Z,98912.69
2022-11-17T12:39:56.089Z,98924.34
2022-11-17T12:43:17.624Z,98919.75
2022-11-17T12:46:27.223Z,98925.53
2022-11-17T12:50:06.797Z,98939.25
2022-11-17T12:53:09.296Z,98950.41
2022-11-17T12:56:18.329Z,98936.94
2022-11-17T12:59:35.351Z,98929.66
2022-11-17T13:02:41.026Z,98924.78
2022-11-17T13:05:43.708Z,98920.84
2022-11-17T13:09:00.865Z,98929.03
2022-11-17T13:12:08.272Z,98940.59
2022-11-17T13:15:23.992Z,98928.38
2022-11-17T13:18:34.010Z,98923.53
2022-11-17T13:21:36.927Z,98928.50
2022-11-17T13:24:42.105Z,98934.37
2022-11-17T13:27:49.403Z,98933.69
2022-11-17T13:30:57.655Z,98935.06
2022-11-17T13:34:06.610Z,98922.75
2022-11-17T13:37:19.514Z,98924.50
2022-11-17T13:40:22.966Z,98931.78
2022-11-17T13:43:28.675Z,98925.06
2022-11-17T13:46:31.610Z,98924.88
2022-11-17T13:49:38.714Z,98919.22
2022-11-17T13:52:46.919Z,98922.81
2022-11-17T13:55:50.949Z,98923.25
2022-11-17T13:58:54.477Z,98934.34
2022-11-17T14:02:30.073Z,98938.00
2022-11-17T14:05:35.340Z,98951.50
2022-11-17T14:08:39.911Z,98942.03
2022-11-17T14:11:43.015Z,98933.28
2022-11-17T14:14:46.329Z,98928.56
2022-11-17T14:18:05.573Z,98929.88
2022-11-17T14:21:14.532Z,98938.28
2022-11-17T14:24:17.932Z,98927.19
2022-11-17T14:27:29.924Z,98933.63
2022-11-17T14:30:32.970Z,98929.78
2022-11-17T14:33:35.548Z,98923.00
2022-11-17T14:36:40.656Z,98924.22
2022-11-17T14:39:43.440Z,98934.13
2022-11-17T14:42:46.414Z,98931.38
2022-11-17T14:45:51.867Z,98939.75
2022-11-17T14:48:55.907Z,98941.34
2022-11-17T14:51:59.421Z,98948.50
2022-11-17T14:55:02.544Z,98949.69
2022-11-17T14:58:05.122Z,98940.66
2022-11-17T15:01:25.570Z,98948.16
2022-11-17T15:04:49.529Z,98947.34
2022-11-17T15:07:51.109Z,98931.56
2022-11-17T15:10:55.460Z,98928.00
2022-11-17T15:14:05.590Z,98921.31
2022-11-17T15:17:13.843Z,98912.97
2022-11-17T15:20:17.845Z,98905.47
2022-11-17T15:23:20.426Z,98905.47
2022-11-17T15:26:26.375Z,98906.66
2022-11-17T15:29:28.966Z,98905.47
2022-11-17T15:32:32.896Z,98893.22
2022-11-17T15:35:36.448Z,98890.88
2022-11-17T15:38:40.639Z,98902.31
2022-11-17T15:41:44.062Z,98896.72
2022-11-17T15:44:46.943Z,98887.97
2022-11-17T15:47:49.943Z,98891.78
2022-11-17T15:50:57.943Z,98891.00
2022-11-17T15:54:00.769Z,98902.41
2022-11-17T15:57:04.229Z,98899.25
2022-11-17T16:00:07.673Z,98904.81
2022-11-17T16:03:12.921Z,98907.16
2022-11-17T16:06:15.460Z,98924.16
2022-11-17T16:09:18.574Z,98931.25
2022-11-17T16:12:21.218Z,98932.81
2022-11-17T16:15:24.155Z,98945.06
2022-11-17T16:18:26.876Z,98953.41
2022-11-17T16:21:29.876Z,98966.81
2022-11-17T16:24:32.514Z,98964.47
2022-11-17T16:27:35.396Z,98971.69
2022-11-17T16:30:38.049Z,98963.44
2022-11-17T16:33:41.329Z,98966.22
2022-11-17T16:36:44.404Z,98971.75
2022-11-17T16:39:47.265Z,98970.16
2022-11-17T16:42:50.015Z,98975.78
2022-11-17T16:45:52.995Z,98988.00
2022-11-17T16:48:56.569Z,98982.97
2022-11-17T16:51:59.831Z,98976.59
2022-11-17T16:55:05.177Z,98975.41
2022-11-17T16:58:10.384Z,98978.97
2022-11-17T17:01:15.126Z,98969.03
2022-11-17T17:04:18.509Z,98981.66
2022-11-17T17:07:24.202Z,98982.94
2022-11-17T17:10:29.235Z,98973.38
2022-11-17T17:13:32.141Z,98983.66
2022-11-17T17:16:37.012Z,99004.31
2022-11-17T17:19:39.620Z,98997.25
2022-11-17T17:22:43.517Z,98987.66
2022-11-17T17:25:46.781Z,98989.22
2022-11-17T17:28:51.984Z,98991.22
2022-11-17T17:31:55.096Z,98984.09
2022-11-17T17:34:58.771Z,98975.72
2022-11-17T17:38:01.922Z,98967.88
2022-11-17T17:41:15.458Z,98971.91
2022-11-17T17:44:22.085Z,98970.72
2022-11-17T17:47:25.252Z,98967.53
2022-11-17T17:50:28.127Z,98968.75
2022-11-17T17:53:31.300Z,98960.50
2022-11-17T17:56:35.277Z,98955.75
2022-11-17T17:59:38.473Z,98941.09
2022-11-17T18:02:41.400Z,98934.72
2022-11-17T18:05:44.723Z,98944.66
2022-11-17T18:08:48.314Z,98944.94
2022-11-17T18:11:51.651Z,98949.34
2022-11-17T18:14:54.370Z,98956.97
2022-11-17T18:17:59.084Z,98957.37
2022-11-17T18:21:04.253Z,98958.19
2022-11-17T18:24:07.995Z,98942.44
2022-11-17T18:27:11.689Z,98936.91
2022-11-17T18:30:16.291Z,98941.69
2022-11-17T18:33:19.322Z,98938.91
2022-11-17T18:36:23.041Z,98944.84
2022-11-17T18:39:27.915Z,98939.66
2022-11-17T18:42:32.805Z,98943.66
2022-11-17T18:45:37.667Z,98942.47
2022-11-17T18:48:43.351Z,98939.69
2022-11-17T18:51:48.073Z,98943.63
2022-11-17T18:54:50.946Z,98940.47
2022-11-17T18:57:53.543Z,98933.34
2022-11-17T19:01:10.406Z,98938.03
2022-11-17T19:04:15.210Z,98937.28
2022-11-17T19:07:18.642Z,98948.81
2022-11-17T19:10:21.886Z,98941.69
2022-11-17T19:13:26.140Z,98942.88
2022-11-17T19:16:29.686Z,98942.88
2022-11-17T19:19:33.079Z,98944.06
2022-11-17T19:22:35.646Z,98923.91
2022-11-17T19:25:41.000Z,98927.88
2022-11-17T19:28:45.067Z,98915.97
2022-11-17T19:31:48.876Z,98928.66
2022-11-17T19:34:52.001Z,98901.78
2022-11-17T19:37:58.786Z,98892.28
2022-11-17T19:41:05.946Z,98886.75
2022-11-17T19:44:09.808Z,98903.75
2022-11-17T19:47:12.690Z,98923.53
2022-11-17T19:50:16.302Z,98940.91
2022-11-17T19:53:19.562Z,98946.06
2022-11-17T19:56:24.250Z,98950.78
2022-11-17T19:59:27.318Z,98957.09
2022-11-17T20:02:30.802Z,98973.66
2022-11-17T20:05:36.579Z,98967.31
2022-11-17T20:08:40.191Z,98958.66
2022-11-17T20:11:44.219Z,98966.19
2022-11-17T20:14:47.989Z,98976.06
2022-11-17T20:17:51.380Z,98979.63
2022-11-17T20:20:55.113Z,98980.81
2022-11-17T20:23:59.433Z,98980.81
2022-11-17T20:27:02.423Z,98985.19
2022-11-17T20:30:07.230Z,98986.75
2022-11-17T20:33:13.158Z,98971.34
2022-11-17T20:36:19.611Z,98969.75
2022-11-17T20:39:22.278Z,98964.22
2022-11-17T20:42:25.561Z,98967.00
2022-11-17T20:45:29.636Z,98956.34
2022-11-17T20:48:34.722Z,98949.59
2022-11-17T20:51:37.876Z,98938.53
2022-11-17T20:54:41.526Z,98950.00
2022-11-17T20:57:44.396Z,98959.47
2022-11-17T21:00:48.311Z,98955.50
2022-11-17T21:03:52.920Z,98963.41
2022-11-17T21:07:00.084Z,98955.50
2022-11-17T21:10:02.865Z,98953.56
2022-11-17T21:13:05.952Z,98959.09
2022-11-17T21:16:14.977Z,98955.53
2022-11-17T21:19:19.008Z,98957.47
2022-11-17T21:22:21.759Z,98962.22
2022-11-17T21:25:24.930Z,98967.38
2022-11-17T21:28:38.739Z,98966.59
2022-11-17T21:31:42.257Z,98963.06
2022-11-17T21:34:49.655Z,98950.78
2022-11-17T21:37:52.775Z,98953.94
2022-11-17T21:40:55.417Z,98959.88
2022-11-17T21:44:00.141Z,98951.19
2022-11-17T21:47:02.741Z,98936.19
2022-11-17T21:50:06.233Z,98933.41
2022-11-17T21:53:08.726Z,98940.91
2022-11-17T21:56:12.564Z,98935.34
2022-11-17T21:59:17.225Z,98939.31
2022-11-17T22:02:22.270Z,98939.72
2022-11-17T22:05:25.094Z,98933.78
2022-11-17T22:08:27.739Z,98926.69
2022-11-17T22:11:38.307Z,98917.59
2022-11-17T22:14:41.223Z,98917.19
2022-11-17T22:17:44.176Z,98914.41
2022-11-17T22:20:53.301Z,98910.06
2022-11-17T22:23:56.318Z,98928.66
2022-11-17T22:26:58.938Z,98933.00
2022-11-17T22:30:01.876Z,98921.53
2022-11-17T22:33:04.737Z,98915.22
2022-11-17T22:36:08.044Z,98920.75
2022-11-17T22:39:10.780Z,98918.37
2022-11-17T22:42:15.575Z,98918.34
2022-11-17T22:45:18.329Z,98921.13
2022-11-17T22:48:21.355Z,98940.50
2022-11-17T22:51:43.553Z,98944.88
2022-11-17T22:54:46.500Z,98935.78
2022-11-17T22:57:49.101Z,98940.53
2022-11-17T23:00:53.145Z,98950.38
2022-11-17T23:03:55.776Z,98949.22
2022-11-17T23:06:58.825Z,98944.84
2022-11-17T23:10:02.126Z,98940.50
2022-11-17T23:13:05.240Z,98946.44
2022-11-17T23:16:08.300Z,98951.59
2022-11-17T23:19:14.357Z,98936.53
2022-11-17T23:22:17.785Z,98927.84
2022-11-17T23:25:21.071Z,98923.09
2022-11-17T23:28:23.587Z,98925.84
2022-11-17T23:31:29.472Z,98921.13
2022-11-17T23:34:33.120Z,98928.66
2022-11-17T23:37:36.063Z,98925.50
2022-11-17T23:40:38.630Z,98927.88
2022-11-17T23:43:42.400Z,98940.13
2022-11-17T23:46:44.979Z,98937.34
2022-11-17T23:49:47.841Z,98928.66
2022-11-17T23:52:50.428Z,98918.37
2022-11-17T23:55:57.565Z,98913.63
2022-11-17T23:59:00.482Z,98900.56
